Time;durP1;ratioP1;P1;durP2;ratioP2;P2;SDS_P1;SDS_P2;PMS_P1;PMS_P2;Temp;Humidity;BMP_temperature;BMP_pressure;BME280_temperature;BME280_humidity;BME280_pressure;Samples;Min_cycle;Max_cycle;Signal;HPM_P1;HPM_P2
2021/04/09 00:00:05;;;;;;;3.72;3.35;;;;;;;4.49;52.24;101490.78;695651;28;47183;-49
2021/04/09 00:00:33;;;;;;;3.38;3.13;;;;;;;4.52;52.33;101485.22;692513;28;119944;-55
2021/04/09 00:00:54;;;;;;;3.75;3.13;;;;;;;4.53;52.18;101489.59;696304;28;7960;-51
2021/04/09 00:01:18;;;;;;;5.50;3.60;;;;;;;4.53;52.25;101484.25;696630;28;1516;-54
2021/04/09 00:01:40;;;;;;;4.38;3.30;;;;;;;4.52;52.04;101485.22;694912;28;44395;-49
2021/04/09 00:02:02;;;;;;;3.83;3.45;;;;;;;4.49;52.24;101491.63;695049;28;63304;-51
2021/04/09 00:02:25;;;;;;;3.58;3.28;;;;;;;4.49;52.17;101483.59;695218;28;45232;-49
2021/04/09 00:02:46;;;;;;;3.40;3.20;;;;;;;4.46;52.35;101486.53;695311;28;40119;-51
2021/04/09 00:03:08;;;;;;;3.50;3.20;;;;;;;4.45;52.22;101484.84;696773;28;16757;-53
2021/04/09 00:03:30;;;;;;;3.70;3.35;;;;;;;4.44;52.37;101487.63;696805;28;1303;-52
2021/04/09 00:03:51;;;;;;;3.72;3.35;;;;;;;4.43;52.28;101480.56;696577;28;15716;-50
2021/04/09 00:04:13;;;;;;;3.63;3.30;;;;;;;4.44;52.32;101482.28;696981;28;869;-50
2021/04/09 00:04:36;;;;;;;3.83;3.28;;;;;;;4.43;52.37;101484.09;695950;28;45274;-49
2021/04/09 00:04:57;;;;;;;4.38;3.40;;;;;;;4.44;52.36;101487.63;694067;28;69499;-49
2021/04/09 00:05:20;;;;;;;3.72;3.28;;;;;;;4.42;52.58;101486.88;696241;28;22378;-50
2021/04/09 00:05:41;;;;;;;4.22;3.35;;;;;;;4.41;52.45;101486.03;694412;28;68059;-52
2021/04/09 00:06:03;;;;;;;4.43;3.40;;;;;;;4.42;52.29;101486.88;695647;28;17444;-50
2021/04/09 00:06:24;;;;;;;4.00;3.53;;;;;;;4.44;52.50;101485.81;695402;28;46402;-52
2021/04/09 00:06:45;;;;;;;3.78;3.40;;;;;;;4.42;52.35;101482.41;696252;28;15528;-49
2021/04/09 00:07:07;;;;;;;3.92;3.13;;;;;;;4.43;52.32;101483.25;696291;28;22409;-52
2021/04/09 00:07:28;;;;;;;3.85;3.15;;;;;;;4.43;52.40;101485.91;695950;28;33566;-53
2021/04/09 00:07:49;;;;;;;3.40;3.10;;;;;;;4.44;52.40;101480.44;695726;28;22272;-51
2021/04/09 00:08:10;;;;;;;3.40;3.10;;;;;;;4.43;52.39;101477.91;696886;28;14342;-52
2021/04/09 00:08:31;;;;;;;4.25;3.55;;;;;;;4.41;52.26;101483.34;695704;28;44696;-52
2021/04/09 00:08:52;;;;;;;5.35;3.65;;;;;;;4.41;52.25;101482.53;696584;28;23496;-53
2021/04/09 00:09:14;;;;;;;4.20;3.30;;;;;;;4.40;52.36;101489.66;696022;28;18328;-54
2021/04/09 00:09:35;;;;;;;4.10;3.33;;;;;;;4.39;52.36;101476.41;696571;28;20785;-50
2021/04/09 00:09:57;;;;;;;5.00;3.67;;;;;;;4.38;52.26;101485.44;696778;28;7338;-50
2021/04/09 00:10:20;;;;;;;3.80;3.50;;;;;;;4.36;52.51;101485.56;695429;28;46612;-52
2021/04/09 00:10:41;;;;;;;3.92;3.60;;;;;;;4.36;52.50;101479.31;694351;28;91223;-54
2021/04/09 00:11:02;;;;;;;5.03;4.00;;;;;;;4.36;52.52;101482.88;696043;28;22520;-50
2021/04/09 00:11:24;;;;;;;3.72;3.42;;;;;;;4.36;52.62;101490.03;697040;28;12879;-53
2021/04/09 00:11:46;;;;;;;3.75;3.45;;;;;;;4.40;52.50;101487.00;695994;28;23534;-52
2021/04/09 00:12:08;;;;;;;3.78;3.45;;;;;;;4.40;52.37;101480.81;695320;28;46285;-52
2021/04/09 00:12:31;;;;;;;3.75;3.40;;;;;;;4.39;52.38;101481.75;695644;28;46271;-50
2021/04/09 00:12:53;;;;;;;3.50;3.20;;;;;;;4.38;52.46;101483.59;693510;28;93057;-50
2021/04/09 00:13:14;;;;;;;4.10;3.38;;;;;;;4.38;52.38;101488.94;695563;28;47464;-49
2021/04/09 00:13:36;;;;;;;3.50;3.17;;;;;;;4.37;52.46;101478.38;696876;28;1010;-52
2021/04/09 00:13:57;;;;;;;3.55;3.33;;;;;;;4.35;52.46;101486.50;695911;28;32328;-49
2021/04/09 00:14:18;;;;;;;3.60;3.30;;;;;;;4.35;52.43;101486.50;696179;28;1755;-54
2021/04/09 00:14:40;;;;;;;4.57;3.45;;;;;;;4.35;52.43;101485.66;696622;28;20857;-53
2021/04/09 00:15:01;;;;;;;3.33;3.03;;;;;;;4.35;52.51;101477.66;696535;28;18731;-50
2021/04/09 00:15:24;;;;;;;3.42;3.13;;;;;;;4.31;52.38;101477.88;695598;28;44388;-53
2021/04/09 00:15:45;;;;;;;4.05;3.30;;;;;;;4.30;52.50;101484.19;694601;28;44636;-51
2021/04/09 00:16:06;;;;;;;3.60;3.22;;;;;;;4.28;52.64;101483.47;695782;28;16525;-56
2021/04/09 00:16:27;;;;;;;3.63;3.33;;;;;;;4.24;52.57;101476.63;696002;28;22788;-53
2021/04/09 00:16:48;;;;;;;3.65;3.35;;;;;;;4.27;52.68;101480.91;696433;28;22382;-52
2021/04/09 00:17:09;;;;;;;4.00;3.42;;;;;;;4.27;52.58;101470.22;695734;28;42908;-51
2021/04/09 00:17:31;;;;;;;7.20;3.35;;;;;;;4.28;52.61;101479.94;696567;28;937;-55
2021/04/09 00:17:53;;;;;;;4.15;3.33;;;;;;;4.27;52.72;101480.91;695227;28;19876;-54
2021/04/09 00:18:14;;;;;;;3.70;3.40;;;;;;;4.26;52.56;101480.06;695536;28;44996;-56
2021/04/09 00:18:35;;;;;;;3.92;3.55;;;;;;;4.27;52.66;101478.22;696058;28;23438;-53
2021/04/09 00:18:56;;;;;;;4.03;3.63;;;;;;;4.28;52.73;101469.25;696479;28;23495;-53
2021/04/09 00:19:20;;;;;;;4.13;3.50;;;;;;;4.28;52.69;101478.13;696281;28;23095;-52
2021/04/09 00:19:41;;;;;;;3.38;3.10;;;;;;;4.28;52.53;101477.28;693979;28;93398;-54
2021/04/09 00:20:03;;;;;;;3.47;3.17;;;;;;;4.27;52.64;101481.75;696821;28;15918;-55
2021/04/09 00:20:25;;;;;;;3.78;3.35;;;;;;;4.27;52.63;101478.22;695624;28;45257;-53
2021/04/09 00:20:46;;;;;;;4.70;3.30;;;;;;;4.25;52.63;101480.19;695451;28;46341;-57
2021/04/09 00:21:08;;;;;;;3.78;3.42;;;;;;;4.23;52.73;101479.41;696192;28;23498;-50
2021/04/09 00:21:29;;;;;;;3.63;3.33;;;;;;;4.23;52.76;101479.41;695773;28;46466;-51
2021/04/09 00:21:50;;;;;;;3.90;3.40;;;;;;;4.20;52.74;101475.19;696085;28;23284;-53
2021/04/09 00:22:11;;;;;;;3.77;3.47;;;;;;;4.16;52.90;101484.41;696779;28;23461;-52
2021/04/09 00:22:33;;;;;;;4.82;3.50;;;;;;;4.17;52.88;101483.44;696772;28;898;-51
2021/04/09 00:22:55;;;;;;;5.47;3.70;;;;;;;4.18;52.87;101482.44;695549;28;21529;-51
2021/04/09 00:23:16;;;;;;;3.95;3.50;;;;;;;4.17;52.93;101478.09;695820;28;38806;-56
2021/04/09 00:23:37;;;;;;;3.85;3.55;;;;;;;4.17;52.85;101480.75;696036;28;22420;-55
2021/04/09 00:23:58;;;;;;;3.58;3.20;;;;;;;4.17;52.93;101480.75;696918;28;16595;-53
2021/04/09 00:24:21;;;;;;;4.47;3.10;;;;;;;4.17;52.99;101479.88;696124;28;1871;-51
2021/04/09 00:24:42;;;;;;;4.05;3.28;;;;;;;4.16;52.79;101473.69;695923;28;20016;-55
2021/04/09 00:25:05;;;;;;;3.33;3.13;;;;;;;4.16;52.81;101479.06;695420;28;46391;-51
2021/04/09 00:25:27;;;;;;;3.45;3.08;;;;;;;4.17;52.87;101475.41;696703;28;1509;-52
2021/04/09 00:25:48;;;;;;;4.55;3.38;;;;;;;4.18;52.83;101482.44;695788;28;12426;-51
2021/04/09 00:26:09;;;;;;;4.18;3.78;;;;;;;4.22;52.79;101475.91;695679;28;23319;-52
2021/04/09 00:26:30;;;;;;;4.47;3.50;;;;;;;4.23;52.77;101479.41;695910;28;22463;-52
2021/04/09 00:26:52;;;;;;;5.68;3.35;;;;;;;4.23;52.70;101480.28;691695;28;38611;-57
2021/04/09 00:27:13;;;;;;;5.15;3.30;;;;;;;4.20;52.68;101480.53;694248;28;1173;-50
2021/04/09 00:27:34;;;;;;;5.93;3.50;;;;;;;4.21;52.60;101470.69;693635;28;16205;-54
2021/04/09 00:27:56;;;;;;;4.22;3.60;;;;;;;4.21;52.59;101484.88;694079;28;43514;-50
2021/04/09 00:28:17;;;;;;;3.95;3.55;;;;;;;4.20;52.60;101472.50;695064;28;23384;-49
2021/04/09 00:28:38;;;;;;;3.53;3.25;;;;;;;4.20;52.67;101469.84;694226;28;18993;-53
2021/04/09 00:28:59;;;;;;;3.50;3.20;;;;;;;4.19;52.72;101475.31;695299;28;21043;-52
2021/04/09 00:29:21;;;;;;;3.47;3.17;;;;;;;4.20;52.82;101476.97;693929;28;45868;-53
2021/04/09 00:29:42;;;;;;;3.60;3.30;;;;;;;4.18;52.87;101477.09;693770;28;46183;-50
2021/04/09 00:30:06;;;;;;;3.90;3.40;;;;;;;4.18;52.88;101477.09;694881;28;19364;-51
2021/04/09 00:30:28;;;;;;;3.45;3.15;;;;;;;4.18;52.76;101476.25;692217;28;90358;-50
2021/04/09 00:30:50;;;;;;;3.78;3.47;;;;;;;4.20;52.90;101471.63;693835;28;46396;-53
2021/04/09 00:31:12;;;;;;;4.40;3.75;;;;;;;4.19;52.88;101467.28;695658;28;1766;-49
2021/04/09 00:31:33;;;;;;;3.90;3.40;;;;;;;4.19;52.79;101467.28;695035;28;23407;-52
2021/04/09 00:31:54;;;;;;;3.90;3.50;;;;;;;4.20;52.85;101472.50;694219;28;45426;-53
2021/04/09 00:32:17;;;;;;;3.83;3.50;;;;;;;4.20;52.68;101461.81;695670;28;2033;-55
2021/04/09 00:32:41;;;;;;;4.18;3.58;;;;;;;4.20;52.73;101467.16;694432;28;37404;-52
2021/04/09 00:33:04;;;;;;;4.10;3.70;;;;;;;4.19;52.69;101457.44;695511;28;1348;-52
2021/04/09 00:33:27;;;;;;;3.97;3.58;;;;;;;4.15;52.77;101462.16;692396;28;92330;-49
2021/04/09 00:33:48;;;;;;;4.25;3.85;;;;;;;4.14;52.88;101460.44;695036;28;20875;-50
2021/04/09 00:34:09;;;;;;;3.70;3.42;;;;;;;4.12;52.98;101465.06;695233;28;17187;-53
2021/04/09 00:34:30;;;;;;;3.90;3.60;;;;;;;4.11;52.93;101451.81;693316;28;44403;-54
2021/04/09 00:34:51;;;;;;;4.00;3.58;;;;;;;4.09;53.01;101459.97;695051;28;16796;-50
2021/04/09 00:35:13;;;;;;;4.22;3.72;;;;;;;4.07;53.11;101461.88;695156;28;22936;-54
2021/04/09 00:35:34;;;;;;;3.88;3.58;;;;;;;4.06;53.28;101459.31;693873;28;46313;-54
2021/04/09 00:35:55;;;;;;;3.80;3.42;;;;;;;4.04;53.14;101458.59;694637;28;23551;-49
2021/04/09 00:36:18;;;;;;;4.32;3.75;;;;;;;4.02;53.24;101461.38;695460;28;10710;-56
2021/04/09 00:36:39;;;;;;;4.35;3.90;;;;;;;4.01;53.29;101456.16;694337;28;44452;-51
2021/04/09 00:37:00;;;;;;;3.92;3.60;;;;;;;4.02;53.35;101463.22;695078;28;22477;-50
2021/04/09 00:37:21;;;;;;;4.18;3.85;;;;;;;4.00;52.96;101447.28;694624;28;22413;-50
2021/04/09 00:37:43;;;;;;;3.97;3.67;;;;;;;4.00;53.47;101457.09;695579;28;23463;-50
2021/04/09 00:38:04;;;;;;;3.50;3.20;;;;;;;3.97;53.57;101458.22;697981;28;46278;-51
2021/04/09 00:38:25;;;;;;;4.13;3.40;;;;;;;3.95;53.62;101455.66;699292;28;22418;-52
2021/04/09 00:38:47;;;;;;;4.28;3.60;;;;;;;3.94;53.54;101453.09;698632;28;46402;-56
2021/04/09 00:39:08;;;;;;;4.45;3.53;;;;;;;3.94;53.61;101458.44;699153;28;21537;-51
2021/04/09 00:39:30;;;;;;;4.88;3.50;;;;;;;3.92;53.63;101450.53;698405;28;43017;-52
2021/04/09 00:39:51;;;;;;;4.10;3.70;;;;;;;3.92;53.70;101457.72;699766;28;22462;-53
2021/04/09 00:40:13;;;;;;;4.78;3.55;;;;;;;3.91;53.68;101454.19;700163;28;21475;-50
2021/04/09 00:40:34;;;;;;;3.97;3.38;;;;;;;3.90;53.67;101455.16;698604;28;46217;-50
2021/04/09 00:40:55;;;;;;;4.13;3.53;;;;;;;3.90;53.65;101454.28;699446;28;22419;-54
2021/04/09 00:41:17;;;;;;;4.40;4.00;;;;;;;3.91;53.76;101454.19;698508;28;42667;-52
2021/04/09 00:41:38;;;;;;;4.20;3.80;;;;;;;3.89;53.74;101450.78;699400;28;22448;-50
2021/04/09 00:41:59;;;;;;;4.00;3.67;;;;;;;3.88;53.89;101449.06;699107;28;47273;-51
2021/04/09 00:42:22;;;;;;;4.55;3.60;;;;;;;3.88;53.75;101451.72;699821;28;22380;-54
2021/04/09 00:42:43;;;;;;;4.90;3.67;;;;;;;3.87;53.77;101454.53;698180;28;46420;-50
2021/04/09 00:43:07;;;;;;;4.20;3.80;;;;;;;3.86;53.83;101451.00;699654;28;20820;-52
2021/04/09 00:43:28;;;;;;;4.35;3.65;;;;;;;3.86;53.82;101448.34;697261;28;82515;-54
2021/04/09 00:43:49;;;;;;;4.05;3.70;;;;;;;3.86;53.84;101447.50;699389;28;23517;-54
2021/04/09 00:44:11;;;;;;;4.72;3.67;;;;;;;3.86;54.09;101447.50;698639;28;45244;-50
2021/04/09 00:44:32;;;;;;;3.93;3.43;;;;;;;3.86;53.92;101448.34;699187;28;23562;-53
2021/04/09 00:44:55;;;;;;;3.67;3.35;;;;;;;3.86;53.88;101452.84;699071;28;46498;-51
2021/04/09 00:45:17;;;;;;;3.70;3.40;;;;;;;3.84;53.88;101444.94;697920;28;69610;-51
2021/04/09 00:45:39;;;;;;;4.00;3.67;;;;;;;3.84;53.92;101441.38;698383;28;45256;-52
2021/04/09 00:46:00;;;;;;;3.83;3.40;;;;;;;3.83;53.91;101437.88;698624;28;44470;-49
2021/04/09 00:46:22;;;;;;;3.55;3.25;;;;;;;3.83;54.00;101443.22;699289;28;22373;-51
2021/04/09 00:46:43;;;;;;;3.83;3.50;;;;;;;3.83;54.02;101443.22;699347;28;22371;-49
2021/04/09 00:47:04;;;;;;;4.65;3.33;;;;;;;3.82;53.99;101443.34;698658;28;46343;-51
2021/04/09 00:47:25;;;;;;;3.60;3.30;;;;;;;3.82;53.92;101441.50;700592;28;882;-53
2021/04/09 00:47:48;;;;;;;4.03;3.70;;;;;;;3.83;54.01;101437.03;699458;28;4298;-50
2021/04/09 00:48:10;;;;;;;4.13;3.70;;;;;;;3.84;53.89;101441.38;699408;28;21554;-52
2021/04/09 00:48:31;;;;;;;3.97;3.50;;;;;;;3.83;53.96;101439.72;699115;28;14117;-53
2021/04/09 00:48:52;;;;;;;4.47;3.67;;;;;;;3.82;53.97;101436.16;697309;28;46367;-53
2021/04/09 00:49:13;;;;;;;4.03;3.60;;;;;;;3.84;54.10;101433.38;699256;28;21536;-53
2021/04/09 00:49:34;;;;;;;3.88;3.58;;;;;;;3.84;53.90;101436.91;699803;28;19185;-51
2021/04/09 00:49:56;;;;;;;4.60;4.15;;;;;;;3.83;54.03;101432.53;700167;28;1939;-52
2021/04/09 00:50:17;;;;;;;4.35;3.95;;;;;;;3.79;54.02;101433.72;698734;28;46360;-50
2021/04/09 00:50:47;;;;;;;3.90;3.45;;;;;;;3.79;54.10;101437.25;697721;28;60893;-52
2021/04/09 00:51:08;;;;;;;4.15;3.47;;;;;;;3.79;54.04;101431.03;699470;28;21514;-52
2021/04/09 00:51:31;;;;;;;3.80;3.50;;;;;;;3.81;54.13;101433.59;699729;28;15966;-53
2021/04/09 00:51:52;;;;;;;4.38;3.97;;;;;;;3.80;54.04;101440.78;698338;28;46373;-49
2021/04/09 00:52:13;;;;;;;4.28;3.88;;;;;;;3.81;54.17;101430.94;699433;28;23559;-52
2021/04/09 00:52:35;;;;;;;5.03;3.78;;;;;;;3.79;54.15;101426.56;698772;28;23492;-49
2021/04/09 00:52:59;;;;;;;4.40;4.00;;;;;;;3.81;53.94;101434.47;697382;28;69418;-49
2021/04/09 00:53:20;;;;;;;4.30;3.90;;;;;;;3.81;54.07;101434.47;697967;28;69946;-56
2021/04/09 00:53:42;;;;;;;4.18;3.70;;;;;;;3.80;53.92;101430.09;700066;28;8091;-55
2021/04/09 00:54:04;;;;;;;4.95;3.97;;;;;;;3.80;54.13;101427.41;697712;28;70301;-52
2021/04/09 00:54:25;;;;;;;4.22;3.70;;;;;;;3.77;54.09;101430.31;698943;28;21537;-52
2021/04/09 00:54:46;;;;;;;5.10;3.90;;;;;;;3.76;54.22;101425.94;698445;28;45266;-55
2021/04/09 00:55:10;;;;;;;4.25;3.85;;;;;;;3.74;54.14;101426.03;699553;28;23426;-52
2021/04/09 00:55:31;;;;;;;3.90;3.50;;;;;;;3.74;54.20;101430.56;697996;28;58425;-52
2021/04/09 00:55:52;;;;;;;3.80;3.50;;;;;;;3.74;54.25;101427.88;698849;28;20786;-50
2021/04/09 00:56:18;;;;;;;4.20;3.80;;;;;;;3.72;54.30;101427.16;698945;28;43867;-53
2021/04/09 00:56:40;;;;;;;5.18;3.78;;;;;;;3.70;54.25;101432.63;694250;28;138744;-53
2021/04/09 00:57:02;;;;;;;4.50;3.95;;;;;;;3.72;54.28;101428.00;698751;28;42723;-55
2021/04/09 00:57:24;;;;;;;5.03;3.90;;;;;;;3.71;54.44;101420.94;698727;28;46397;-54
2021/04/09 00:57:45;;;;;;;5.13;3.60;;;;;;;3.71;54.44;101428.09;699221;28;22381;-50
2021/04/09 00:58:08;;;;;;;4.10;3.80;;;;;;;3.70;54.35;101427.28;700196;28;910;-55
2021/04/09 00:58:29;;;;;;;4.05;3.67;;;;;;;3.70;54.37;101429.94;699699;28;23435;-54
2021/04/09 00:58:52;;;;;;;4.18;3.78;;;;;;;3.71;54.44;101417.44;699653;28;14927;-51
2021/04/09 00:59:13;;;;;;;3.67;3.38;;;;;;;3.70;54.49;101427.28;697176;28;86402;-53
2021/04/09 00:59:35;;;;;;;3.75;3.40;;;;;;;3.71;54.30;101426.28;699206;28;22393;-49
2021/04/09 00:59:56;;;;;;;3.97;3.58;;;;;;;3.72;54.30;101419.13;698974;28;23009;-51
2021/04/09 01:00:19;;;;;;;4.73;3.67;;;;;;;3.72;54.27;101422.66;700383;28;905;-53
2021/04/09 01:00:44;;;;;;;4.00;3.53;;;;;;;3.74;54.31;101422.53;694989;28;60706;-54
2021/04/09 01:01:06;;;;;;;4.68;3.63;;;;;;;3.73;54.20;101419.03;697508;28;30067;-51
2021/04/09 01:01:27;;;;;;;4.45;3.40;;;;;;;3.72;54.32;101419.13;699496;28;22405;-52
2021/04/09 01:01:48;;;;;;;4.43;3.63;;;;;;;3.72;54.52;101417.31;699468;28;21441;-51
2021/04/09 01:02:09;;;;;;;4.55;3.67;;;;;;;3.71;54.51;101420.94;699328;28;22495;-50
2021/04/09 01:02:30;;;;;;;4.18;3.70;;;;;;;3.72;54.34;101421.81;697431;28;45236;-49
2021/04/09 01:02:51;;;;;;;4.07;3.67;;;;;;;3.72;54.43;101422.66;698630;28;22242;-55
2021/04/09 01:03:13;;;;;;;4.00;3.60;;;;;;;3.73;54.31;101418.16;699329;28;22413;-50
2021/04/09 01:03:34;;;;;;;3.85;3.50;;;;;;;3.72;54.32;101417.31;699895;28;13888;-53
2021/04/09 01:03:56;;;;;;;4.10;3.70;;;;;;;3.71;54.33;101415.59;698421;28;38961;-55
2021/04/09 01:04:17;;;;;;;3.95;3.65;;;;;;;3.69;54.29;101417.53;699348;28;17298;-52
2021/04/09 01:04:38;;;;;;;4.93;3.53;;;;;;;3.69;54.46;101424.72;699614;28;22420;-54
2021/04/09 01:04:59;;;;;;;4.15;3.85;;;;;;;3.69;54.46;101416.69;699537;28;23531;-51
2021/04/09 01:05:21;;;;;;;4.13;3.63;;;;;;;3.68;54.44;101418.50;698908;28;45232;-50
2021/04/09 01:05:42;;;;;;;4.25;3.40;;;;;;;3.68;54.25;101421.16;698475;28;46303;-53
2021/04/09 01:06:03;;;;;;;4.72;3.58;;;;;;;3.69;54.52;101417.53;699497;28;22394;-51
2021/04/09 01:06:24;;;;;;;4.22;3.78;;;;;;;3.68;54.54;101420.31;700013;28;10499;-55
2021/04/09 01:06:45;;;;;;;4.68;4.28;;;;;;;3.68;54.34;101410.47;699460;28;16154;-55
2021/04/09 01:07:07;;;;;;;4.10;3.70;;;;;;;3.70;54.28;101415.72;700211;28;1655;-49
2021/04/09 01:07:28;;;;;;;4.53;3.50;;;;;;;3.68;54.32;101410.47;698728;28;43709;-49
2021/04/09 01:07:49;;;;;;;4.10;3.70;;;;;;;3.70;54.52;101413.91;699436;28;22405;-50
2021/04/09 01:08:11;;;;;;;4.28;3.88;;;;;;;3.69;54.33;101411.34;699741;28;6706;-51
2021/04/09 01:08:32;;;;;;;4.20;3.72;;;;;;;3.66;54.30;101412.44;699383;28;17936;-54
2021/04/09 01:08:53;;;;;;;4.85;3.90;;;;;;;3.67;54.37;101414.13;698826;28;46241;-50
2021/04/09 01:09:14;;;;;;;4.78;4.00;;;;;;;3.68;54.36;101414.97;699592;28;22360;-54
2021/04/09 01:09:36;;;;;;;4.03;3.65;;;;;;;3.68;54.42;101405.13;700381;28;930;-56
2021/04/09 01:09:57;;;;;;;3.80;3.50;;;;;;;3.68;54.30;101410.47;698945;28;46289;-51
2021/04/09 01:10:20;;;;;;;4.43;3.85;;;;;;;3.68;54.54;101412.31;699302;28;21527;-54
2021/04/09 01:10:41;;;;;;;4.47;3.80;;;;;;;3.67;54.37;101407.91;697883;28;67990;-50
2021/04/09 01:11:02;;;;;;;4.30;3.42;;;;;;;3.65;54.32;101409.88;700225;28;15165;-50
2021/04/09 01:11:23;;;;;;;5.18;3.70;;;;;;;3.66;54.40;101411.59;699603;28;23531;-53
2021/04/09 01:11:44;;;;;;;4.30;3.72;;;;;;;3.65;54.25;101412.53;700484;28;854;-50
2021/04/09 01:12:07;;;;;;;4.15;3.50;;;;;;;3.63;54.40;101401.13;699897;28;23364;-51
2021/04/09 01:12:28;;;;;;;5.70;3.45;;;;;;;3.63;54.40;101401.13;697692;28;70180;-52
2021/04/09 01:12:49;;;;;;;4.30;3.63;;;;;;;3.63;54.43;101406.47;698636;28;22409;-56
2021/04/09 01:13:11;;;;;;;3.83;3.47;;;;;;;3.66;54.49;101409.75;699366;28;22412;-51
2021/04/09 01:13:32;;;;;;;4.40;3.80;;;;;;;3.69;54.22;101406.00;700125;28;1157;-55
2021/04/09 01:13:53;;;;;;;4.13;3.70;;;;;;;3.68;54.10;101402.47;700027;28;14552;-49
2021/04/09 01:14:14;;;;;;;3.72;3.42;;;;;;;3.67;54.21;101406.13;699644;28;15904;-51
2021/04/09 01:14:36;;;;;;;3.78;3.47;;;;;;;3.65;54.31;101410.72;699168;28;14982;-51
2021/04/09 01:14:58;;;;;;;4.95;3.85;;;;;;;3.66;54.26;101404.41;698949;28;46253;-50
2021/04/09 01:15:19;;;;;;;5.35;3.63;;;;;;;3.65;54.21;101408.03;698743;28;42083;-48
2021/04/09 01:15:40;;;;;;;5.45;3.42;;;;;;;3.64;54.20;101401.00;699468;28;953;-58
2021/04/09 01:16:04;;;;;;;5.00;3.90;;;;;;;3.65;54.33;101407.19;699635;28;11807;-49
2021/04/09 01:16:29;;;;;;;5.20;3.88;;;;;;;3.65;54.33;101409.88;696661;28;90709;-51
2021/04/09 01:16:53;;;;;;;5.82;3.72;;;;;;;3.65;54.29;101409.88;696050;28;116004;-56
2021/04/09 01:17:19;;;;;;;6.20;4.00;;;;;;;3.66;54.26;101411.59;697051;28;92269;-51
2021/04/09 01:17:43;;;;;;;4.15;3.63;;;;;;;3.66;54.36;101403.56;695463;28;131757;-50
2021/04/09 01:18:08;;;;;;;5.68;3.90;;;;;;;3.63;54.12;101404.63;696533;28;100294;-51
2021/04/09 01:18:35;;;;;;;4.88;3.80;;;;;;;3.60;54.29;101396.84;696660;28;114933;-52
2021/04/09 01:19:01;;;;;;;4.07;3.67;;;;;;;3.58;54.41;101402.31;695479;28;137849;-53
2021/04/09 01:19:35;;;;;;;4.88;3.80;;;;;;;3.59;54.48;101403.19;695052;28;138522;-50
2021/04/09 01:20:29;;;;;;;3.90;3.60;;;;;;;3.63;54.13;101401.13;694943;28;139600;-54
2021/04/09 01:20:59;;;;;;;4.20;3.80;;;;;;;3.64;54.25;101400.13;694991;28;137707;-53
2021/04/09 01:21:27;;;;;;;4.10;3.70;;;;;;;3.61;54.36;101399.41;694378;28;160890;-54
2021/04/09 01:21:53;;;;;;;4.05;3.60;;;;;;;3.63;54.35;101401.13;694956;28;131262;-52
2021/04/09 01:22:14;;;;;;;5.88;3.83;;;;;;;3.61;54.42;101395.91;697507;28;61456;-54
2021/04/09 01:22:41;;;;;;;6.90;4.13;;;;;;;3.61;54.24;101393.22;699475;28;22638;-50
2021/04/09 01:23:12;;;;;;;4.85;3.67;;;;;;;3.63;54.46;101401.13;695044;28;135993;-54
2021/04/09 01:24:05;;;;;;;5.13;3.50;;;;;;;3.60;54.32;101394.19;695342;28;136200;-53
2021/04/09 01:24:46;;;;;;;3.88;3.53;;;;;;;3.55;54.26;101389.19;684052;28;137699;-55
2021/04/09 01:25:36;;;;;;;3.83;3.50;;;;;;;3.54;54.41;101386.63;695217;28;137231;-49
2021/04/09 01:26:24;;;;;;;4.22;3.63;;;;;;;3.53;54.53;101390.28;695574;28;137487;-50
2021/04/09 01:27:21;;;;;;;4.00;3.65;;;;;;;3.53;54.40;101396.47;695337;28;136010;-52
2021/04/09 01:27:51;;;;;;;5.95;4.00;;;;;;;3.53;54.47;101391.13;694548;28;137474;-53
2021/04/09 01:28:15;;;;;;;4.47;4.07;;;;;;;3.52;54.49;101389.41;690775;28;155864;-51
2021/04/09 01:28:42;;;;;;;4.63;4.10;;;;;;;3.50;54.44;101383.34;694220;28;92326;-51
2021/04/09 01:29:20;;;;;;;4.20;3.80;;;;;;;3.51;54.53;101389.53;692920;28;136377;-52
2021/04/09 01:30:21;;;;;;;4.25;3.42;;;;;;;3.47;54.54;101385.41;692585;28;135874;-51
2021/04/09 01:31:16;;;;;;;4.43;4.03;;;;;;;3.49;54.66;101380.78;695867;28;62980;-49
2021/04/09 01:31:47;;;;;;;4.25;3.85;;;;;;;3.47;54.79;101382.75;691560;28;135190;-51
2021/04/09 01:32:09;;;;;;;5.80;3.40;;;;;;;3.47;54.82;101382.75;692674;28;138802;-52
2021/04/09 01:32:30;;;;;;;4.47;3.85;;;;;;;3.47;54.80;101372.91;696174;28;46509;-51
2021/04/09 01:32:53;;;;;;;4.65;4.00;;;;;;;3.46;54.69;101379.19;696979;28;23886;-51
2021/04/09 01:33:14;;;;;;;4.82;3.67;;;;;;;3.44;54.86;101381.13;694138;28;64549;-49
2021/04/09 01:33:40;;;;;;;3.45;3.22;;;;;;;3.42;54.88;101372.41;696365;28;13907;-49
2021/04/09 01:34:03;;;;;;;3.60;3.30;;;;;;;3.41;54.85;101368.84;693681;28;66975;-51
2021/04/09 01:34:25;;;;;;;3.92;3.40;;;;;;;3.43;54.77;101371.41;694866;28;70397;-51
2021/04/09 01:34:50;;;;;;;4.43;3.50;;;;;;;3.43;54.83;101376.75;695237;28;39077;-51
2021/04/09 01:35:14;;;;;;;4.90;3.97;;;;;;;3.42;54.99;101370.56;693212;28;104711;-53
2021/04/09 01:35:37;;;;;;;4.15;3.75;;;;;;;3.42;54.89;101370.56;694438;28;88334;-51
2021/04/09 01:36:02;;;;;;;3.90;3.53;;;;;;;3.42;54.78;101367.06;695529;28;62575;-50
2021/04/09 01:36:27;;;;;;;4.38;3.60;;;;;;;3.45;54.84;101366.81;693411;28;113591;-52
2021/04/09 01:36:50;;;;;;;5.32;3.95;;;;;;;3.47;54.85;101372.06;692696;28;113597;-52
2021/04/09 01:37:14;;;;;;;4.10;3.70;;;;;;;3.49;54.62;101370.13;695197;28;70188;-52
2021/04/09 01:37:39;;;;;;;4.45;3.75;;;;;;;3.48;54.69;101365.72;693893;28;92275;-52
2021/04/09 01:38:02;;;;;;;4.00;3.60;;;;;;;3.45;54.56;101364.16;693188;28;113533;-49
2021/04/09 01:38:27;;;;;;;4.10;3.80;;;;;;;3.42;54.82;101367.91;695200;28;69437;-52
2021/04/09 01:38:52;;;;;;;4.13;3.72;;;;;;;3.41;54.83;101360.84;693112;28;135388;-51
2021/04/09 01:39:15;;;;;;;3.80;3.40;;;;;;;3.40;54.76;101363.63;693792;28;116152;-54
2021/04/09 01:39:39;;;;;;;4.53;3.30;;;;;;;3.40;54.82;101358.28;694959;28;69497;-48
2021/04/09 01:40:11;;;;;;;4.40;3.50;;;;;;;3.40;54.87;101359.16;694392;28;84257;-53
2021/04/09 01:40:34;;;;;;;4.18;3.63;;;;;;;3.40;54.95;101363.63;692224;28;147599;-53
2021/04/09 01:40:56;;;;;;;4.35;3.92;;;;;;;3.41;54.93;101357.34;695200;28;70322;-53
2021/04/09 01:41:18;;;;;;;5.10;3.97;;;;;;;3.42;54.89;101353.72;695737;28;46316;-52
2021/04/09 01:41:40;;;;;;;5.00;3.72;;;;;;;3.42;54.90;101357.22;696139;28;38678;-50
2021/04/09 01:42:02;;;;;;;5.30;3.55;;;;;;;3.41;54.59;101352.84;695681;28;45252;-54
2021/04/09 01:42:25;;;;;;;4.72;3.55;;;;;;;3.42;54.85;101359.06;695120;28;69447;-51
2021/04/09 01:42:50;;;;;;;4.40;3.67;;;;;;;3.40;54.85;101351.16;695589;28;43711;-50
2021/04/09 01:43:13;;;;;;;4.82;3.40;;;;;;;3.38;54.87;101355.72;693921;28;100237;-52
2021/04/09 01:43:41;;;;;;;3.90;3.50;;;;;;;3.38;54.81;101352.22;697332;28;62489;-52
2021/04/09 01:44:04;;;;;;;4.18;3.78;;;;;;;3.39;54.89;101345.94;698272;28;47275;-51
2021/04/09 01:44:29;;;;;;;3.60;3.30;;;;;;;3.39;54.80;101351.28;698104;28;61099;-51
2021/04/09 01:44:51;;;;;;;3.78;3.47;;;;;;;3.39;54.76;101345.94;698267;28;47786;-53
2021/04/09 01:45:13;;;;;;;3.90;3.60;;;;;;;3.38;54.82;101352.22;698061;28;32285;-58
2021/04/09 01:45:35;;;;;;;4.15;3.75;;;;;;;3.36;54.79;101348.81;697244;28;38501;-49
2021/04/09 01:45:58;;;;;;;5.07;3.80;;;;;;;3.34;55.01;101353.41;696828;28;1647;-51
2021/04/09 01:46:24;;;;;;;4.30;3.70;;;;;;;3.32;55.08;101348.19;695686;28;61653;-51
2021/04/09 01:46:47;;;;;;;3.70;3.40;;;;;;;3.31;54.87;101346.50;696634;28;23534;-54
2021/04/09 01:47:10;;;;;;;4.10;3.70;;;;;;;3.31;55.03;101354.50;694577;28;80027;-53
2021/04/09 01:47:33;;;;;;;4.05;3.72;;;;;;;3.29;55.18;101347.56;696866;28;15098;-51
2021/04/09 01:47:55;;;;;;;4.13;3.63;;;;;;;3.29;55.05;101345.78;696491;28;21662;-53
2021/04/09 01:48:17;;;;;;;6.47;3.47;;;;;;;3.28;55.12;101346.72;696227;28;46393;-52
2021/04/09 01:48:41;;;;;;;4.25;3.60;;;;;;;3.28;55.05;101346.72;698864;28;16063;-53
2021/04/09 01:49:03;;;;;;;6.15;4.13;;;;;;;3.26;55.13;101346.00;697911;28;46461;-50
2021/04/09 01:49:26;;;;;;;6.03;4.10;;;;;;;3.25;55.13;101353.13;698674;28;44383;-52
2021/04/09 01:49:48;;;;;;;4.00;3.60;;;;;;;3.27;55.19;101345.00;698988;28;16878;-55
2021/04/09 01:50:12;;;;;;;4.05;3.70;;;;;;;3.29;55.12;101342.22;698707;28;42680;-51
2021/04/09 01:50:33;;;;;;;4.30;3.55;;;;;;;3.27;55.07;101339.66;695160;28;92942;-52